createdAt,value
2023-11-25T00:01:59.943Z,99354.47
2023-11-25T00:04:30.095Z,99355.56
2023-11-25T00:07:00.163Z,99362.69
2023-11-25T00:09:30.201Z,99361.97
2023-11-25T00:12:02.915Z,99360.31
2023-11-25T00:14:33.044Z,99362.22
2023-11-25T00:17:03.170Z,99367.69
2023-11-25T00:19:33.259Z,99365.22
2023-11-25T00:22:03.399Z,99366.97
2023-11-25T00:24:33.473Z,99373.16
2023-11-25T00:27:06.175Z,99373.41
2023-11-25T00:29:36.223Z,99378.59
2023-11-25T00:32:06.376Z,99392.69
2023-11-25T00:34:36.423Z,99398.72
2023-11-25T00:37:07.729Z,99402.50
2023-11-25T00:39:37.990Z,99400.75
2023-11-25T00:42:11.666Z,99412.09
2023-11-25T00:44:41.982Z,99417.44
2023-11-25T00:47:14.688Z,99420.03
2023-11-25T00:49:46.299Z,99420.88
2023-11-25T00:52:16.381Z,99421.00
2023-11-25T00:54:46.796Z,99429.75
2023-11-25T00:57:19.448Z,99427.41
2023-11-25T00:59:49.600Z,99426.56
2023-11-25T01:02:19.852Z,99432.59
2023-11-25T01:04:50.239Z,99438.88
2023-11-25T01:07:21.883Z,99431.78
2023-11-25T01:09:52.240Z,99441.38
2023-11-25T01:12:24.966Z,99443.16
2023-11-25T01:14:55.403Z,99452.75
2023-11-25T01:17:27.599Z,99452.03
2023-11-25T01:19:57.851Z,99456.28
2023-11-25T01:22:28.037Z,99457.25
2023-11-25T01:24:58.096Z,99459.84
2023-11-25T01:27:30.793Z,99461.38
2023-11-25T01:30:01.305Z,99464.81
2023-11-25T01:32:31.525Z,99462.09
2023-11-25T01:34:59.057Z,99470.47
2023-11-25T01:37:31.215Z,99471.19
2023-11-25T01:40:01.437Z,99480.41
2023-11-25T01:42:34.141Z,99480.41
2023-11-25T01:45:04.322Z,99486.25
2023-11-25T01:47:35.323Z,99479.13
2023-11-25T01:50:07.391Z,99480.91
2023-11-25T01:52:39.168Z,99492.03
2023-11-25T01:55:10.688Z,99484.22
2023-11-25T01:57:43.546Z,99484.09
2023-11-25T02:00:16.569Z,99490.97
2023-11-25T02:02:46.963Z,99487.41
2023-11-25T02:05:17.383Z,99485.63
2023-11-25T02:07:47.735Z,99490.59
2023-11-25T02:10:17.933Z,99495.81
2023-11-25T02:12:50.679Z,99501.72
2023-11-25T02:15:20.771Z,99498.16
2023-11-25T02:17:52.139Z,99500.66
2023-11-25T02:20:36.836Z,99509.16
2023-11-25T02:23:20.090Z,99506.44
2023-11-25T02:25:50.889Z,99507.41
2023-11-25T02:28:21.714Z,99510.94
2023-11-25T02:30:52.957Z,99511.91
2023-11-25T02:33:23.400Z,99510.25
2023-11-25T02:35:53.702Z,99518.78
2023-11-25T02:38:26.344Z,99521.00
2023-11-25T02:40:56.401Z,99519.47
2023-11-25T02:43:27.706Z,99527.06
2023-11-25T02:45:57.859Z,99523.50
2023-11-25T02:48:27.985Z,99528.47
2023-11-25T02:50:58.165Z,99533.44
2023-11-25T02:53:31.526Z,99538.63
2023-11-25T02:56:01.582Z,99548.94
2023-11-25T02:58:33.746Z,99543.72
2023-11-25T03:01:09.462Z,99543.72
2023-11-25T03:03:44.114Z,99546.47
2023-11-25T03:06:14.343Z,99549.06
2023-11-25T03:08:47.207Z,99548.13
2023-11-25T03:11:22.527Z,99547.16
2023-11-25T03:13:52.965Z,99560.44
2023-11-25T03:16:26.267Z,99556.88
2023-11-25T03:18:56.582Z,99568.13
2023-11-25T03:21:26.630Z,99570.88
2023-11-25T03:24:00.733Z,99563.28
2023-11-25T03:26:35.126Z,99571.09
2023-11-25T03:29:05.236Z,99584.97
2023-11-25T03:31:36.661Z,99578.94
2023-11-25T03:34:06.900Z,99581.66
2023-11-25T03:36:37.021Z,99585.09
2023-11-25T03:39:11.238Z,99593.72
2023-11-25T03:41:41.368Z,99594.56
2023-11-25T03:44:11.564Z,99605.00
2023-11-25T03:46:44.591Z,99608.53
2023-11-25T03:49:14.860Z,99603.34
2023-11-25T03:51:45.328Z,99605.22
2023-11-25T03:54:18.022Z,99609.63
2023-11-25T03:56:48.071Z,99613.16
2023-11-25T03:59:18.906Z,99615.06
2023-11-25T04:01:49.254Z,99621.94
2023-11-25T04:04:19.555Z,99615.78
2023-11-25T04:06:51.362Z,99621.69
2023-11-25T04:09:24.342Z,99629.16
2023-11-25T04:11:54.907Z,99624.66
2023-11-25T04:14:26.970Z,99622.03
2023-11-25T04:16:57.634Z,99630.56
2023-11-25T04:19:28.418Z,99633.19
2023-11-25T04:22:00.295Z,99629.75
2023-11-25T04:24:35.848Z,99630.56
2023-11-25T04:27:07.110Z,99629.03
2023-11-25T04:29:37.169Z,99637.81
2023-11-25T04:32:08.182Z,99646.69
2023-11-25T04:34:38.371Z,99640.75
2023-11-25T04:37:08.977Z,99650.38
2023-11-25T04:39:41.661Z,99648.59
2023-11-25T04:42:12.014Z,99653.91
2023-11-25T04:44:42.018Z,99650.59
2023-11-25T04:47:12.463Z,99650.47
2023-11-25T04:49:44.101Z,99653.22
2023-11-25T04:52:14.857Z,99654.03
2023-11-25T04:54:48.051Z,99658.31
2023-11-25T04:57:19.505Z,99653.09
2023-11-25T04:59:49.608Z,99659.84
2023-11-25T05:02:21.611Z,99659.84
2023-11-25T05:04:51.860Z,99670.97
2023-11-25T05:07:22.984Z,99662.22
2023-11-25T05:09:55.841Z,99668.97
2023-11-25T05:12:26.161Z,99679.38
2023-11-25T05:14:56.256Z,99675.25
2023-11-25T05:17:27.753Z,99691.47
2023-11-25T05:19:58.150Z,99698.34
2023-11-25T05:22:29.958Z,99699.88
2023-11-25T05:25:03.544Z,99696.56
2023-11-25T05:27:33.920Z,99706.75
2023-11-25T05:30:04.365Z,99696.44
2023-11-25T05:32:34.529Z,99697.41
2023-11-25T05:35:06.961Z,99697.50
2023-11-25T05:37:37.072Z,99697.63
2023-11-25T05:40:13.067Z,99701.41
2023-11-25T05:42:49.664Z,99691.13
2023-11-25T05:45:21.934Z,99701.53
2023-11-25T05:47:52.603Z,99704.97
2023-11-25T05:50:23.949Z,99703.19
2023-11-25T05:52:54.437Z,99716.13
2023-11-25T05:55:27.891Z,99711.00
2023-11-25T05:58:00.461Z,99716.13
2023-11-25T06:00:31.611Z,99718.97
2023-11-25T06:03:01.714Z,99719.06
2023-11-25T06:05:31.935Z,99722.50
2023-11-25T06:08:01.961Z,99727.00
2023-11-25T06:10:34.628Z,99726.28
2023-11-25T06:13:05.701Z,99729.38
2023-11-25T06:15:35.797Z,99740.50
2023-11-25T06:18:05.984Z,99746.78
2023-11-25T06:20:36.080Z,99749.41
2023-11-25T06:23:06.093Z,99745.84
2023-11-25T06:25:38.908Z,99748.44
2023-11-25T06:28:09.045Z,99747.97
2023-11-25T06:30:40.526Z,99750.94
2023-11-25T06:33:10.642Z,99752.81
2023-11-25T06:35:40.750Z,99762.53
2023-11-25T06:38:10.870Z,99754.22
2023-11-25T06:40:43.870Z,99748.41
2023-11-25T06:43:14.603Z,99745.31
2023-11-25T06:45:45.587Z,99751.56
2023-11-25T06:48:17.383Z,99741.38
2023-11-25T06:50:47.511Z,99754.53
2023-11-25T06:53:17.733Z,99750.38
2023-11-25T06:55:50.540Z,99760.19
2023-11-25T06:58:20.904Z,99761.97
2023-11-25T07:00:51.220Z,99754.25
2023-11-25T07:03:21.355Z,99750.22
2023-11-25T07:05:51.554Z,99758.03
2023-11-25T07:08:21.658Z,99753.66
2023-11-25T07:11:00.688Z,99750.13
2023-11-25T07:13:31.820Z,99747.50
2023-11-25T07:16:03.426Z,99759.34
2023-11-25T07:18:33.535Z,99765.41
2023-11-25T07:21:04.303Z,99754.16
2023-11-25T07:23:34.499Z,99763.50
2023-11-25T07:26:07.250Z,99762.81
2023-11-25T07:28:37.340Z,99758.25
2023-11-25T07:31:08.932Z,99760.78
2023-11-25T07:33:38.973Z,99764.34
2023-11-25T07:36:10.385Z,99755.44
2023-11-25T07:38:40.438Z,99758.06
2023-11-25T07:41:19.151Z,99754.91
2023-11-25T07:43:49.171Z,99756.91
2023-11-25T07:46:19.335Z,99755.25
2023-11-25T07:48:49.935Z,99756.53
2023-11-25T07:51:20.530Z,99763.44
2023-11-25T07:53:50.709Z,99762.56
2023-11-25T07:56:23.501Z,99766.69
2023-11-25T07:58:53.598Z,99757.38
2023-11-25T08:01:24.472Z,99756.13
2023-11-25T08:03:54.795Z,99762.97
2023-11-25T08:06:26.980Z,99755.78
2023-11-25T08:08:57.107Z,99763.00
2023-11-25T08:11:36.383Z,99767.28
2023-11-25T08:14:06.882Z,99766.06
2023-11-25T08:16:37.359Z,99775.84
2023-11-25T08:19:08.018Z,99780.50
2023-11-25T08:21:39.349Z,99779.94
2023-11-25T08:24:10.992Z,99776.16
2023-11-25T08:26:43.970Z,99775.75
2023-11-25T08:29:17.162Z,99787.25
2023-11-25T08:31:47.604Z,99785.56
2023-11-25T08:34:17.749Z,99778.19
2023-11-25T08:36:54.191Z,99780.38
2023-11-25T08:39:27.006Z,99783.69
2023-11-25T08:42:00.475Z,99783.50
2023-11-25T08:44:30.529Z,99776.13
2023-11-25T08:47:00.814Z,99777.50
2023-11-25T08:49:31.142Z,99778.88
2023-11-25T08:52:01.240Z,99779.53
2023-11-25T08:54:38.077Z,99776.28
2023-11-25T08:57:12.809Z,99775.56
2023-11-25T08:59:43.002Z,99779.44
2023-11-25T09:02:14.390Z,99785.09
2023-11-25T09:04:44.542Z,99784.41
2023-11-25T09:07:16.069Z,99793.03
2023-11-25T09:09:51.068Z,99781.75
2023-11-25T09:12:23.909Z,99780.84
2023-11-25T09:14:57.205Z,99796.28
2023-11-25T09:17:27.323Z,99797.69
2023-11-25T09:19:57.483Z,99796.34
2023-11-25T09:22:27.725Z,99784.06
2023-11-25T09:24:57.887Z,99799.84
2023-11-25T09:27:30.638Z,99793.31
2023-11-25T09:30:00.753Z,99802.63
2023-11-25T09:32:30.929Z,99805.84
2023-11-25T09:35:01.462Z,99798.00
2023-11-25T09:37:31.707Z,99790.53
2023-11-25T09:40:04.393Z,99791.66
2023-11-25T09:42:37.628Z,99787.38
2023-11-25T09:45:10.631Z,99781.84
2023-11-25T09:47:41.775Z,99780.75
2023-11-25T09:50:14.660Z,99776.19
2023-11-25T09:52:50.866Z,99771.09
2023-11-25T09:55:25.340Z,99771.63
2023-11-25T09:58:03.342Z,99765.25
2023-11-25T10:00:34.928Z,99765.84
2023-11-25T10:03:07.480Z,99753.31
2023-11-25T10:05:37.684Z,99756.38
2023-11-25T10:08:08.447Z,99757.63
2023-11-25T10:10:38.786Z,99756.94
2023-11-25T10:13:17.029Z,99762.19
2023-11-25T10:15:49.811Z,99757.22
2023-11-25T10:18:19.894Z,99747.31
2023-11-25T10:20:52.845Z,99746.88
2023-11-25T10:23:25.475Z,99745.91
2023-11-25T10:25:55.995Z,99748.84
2023-11-25T10:28:34.197Z,99754.25
2023-11-25T10:31:05.896Z,99755.91
2023-11-25T10:33:38.912Z,99748.03
2023-11-25T10:36:10.017Z,99760.19
2023-11-25T10:38:43.794Z,99747.75
2023-11-25T10:41:17.106Z,99738.22
2023-11-25T10:43:51.213Z,99738.25
2023-11-25T10:46:21.369Z,99739.63
2023-11-25T10:48:53.369Z,99731.59
2023-11-25T10:51:24.251Z,99733.09
2023-11-25T10:53:55.365Z,99735.72
2023-11-25T10:56:26.574Z,99731.13
2023-11-25T10:59:00.273Z,99722.88
2023-11-25T11:01:35.724Z,99725.34
2023-11-25T11:04:13.198Z,99728.13
2023-11-25T11:06:52.004Z,99727.16
2023-11-25T11:09:23.978Z,99728.41
2023-11-25T11:12:08.434Z,99726.78
2023-11-25T11:14:48.685Z,99732.19
2023-11-25T11:17:28.796Z,99728.31
2023-11-25T11:20:02.262Z,99723.09
2023-11-25T11:22:32.651Z,99735.09
2023-11-25T11:25:14.022Z,99731.38
2023-11-25T11:27:50.602Z,99733.56
2023-11-25T11:30:32.625Z,99738.53
2023-11-25T11:33:03.581Z,99728.44
2023-11-25T11:35:41.471Z,99734.91
2023-11-25T11:38:27.854Z,99732.28
2023-11-25T11:40:59.699Z,99730.75
2023-11-25T11:43:30.453Z,99732.41
2023-11-25T11:46:05.709Z,99728.81
2023-11-25T11:48:35.820Z,99730.47
2023-11-25T11:51:06.002Z,99729.66
2023-11-25T11:53:36.129Z,99719.31
2023-11-25T11:56:06.553Z,99716.56
2023-11-25T11:58:36.843Z,99705.25
2023-11-25T12:01:15.802Z,99713.13
2023-11-25T12:03:46.042Z,99720.16
2023-11-25T12:06:18.039Z,99708.97
2023-11-25T12:08:48.668Z,99706.38
2023-11-25T12:11:21.121Z,99706.78
2023-11-25T12:13:51.299Z,99695.47
2023-11-25T12:16:24.286Z,99706.06
2023-11-25T12:18:54.993Z,99696.72
2023-11-25T12:21:26.866Z,99700.28
2023-11-25T12:23:57.021Z,99696.28
2023-11-25T12:26:29.889Z,99704.31
2023-11-25T12:29:24.274Z,99701.28
2023-11-25T12:31:57.172Z,99698.50
2023-11-25T12:34:27.396Z,99699.19
2023-11-25T12:36:57.837Z,99699.91
2023-11-25T12:39:27.908Z,99693.41
2023-11-25T12:41:58.107Z,99702.66
2023-11-25T12:44:28.347Z,99702.91
2023-11-25T12:47:10.065Z,99705.13
2023-11-25T12:49:40.216Z,99707.31
2023-11-25T12:52:10.388Z,99707.31
2023-11-25T12:54:48.111Z,99718.47
2023-11-25T12:57:19.291Z,99712.41
2023-11-25T12:59:49.648Z,99710.91
2023-11-25T13:02:22.910Z,99714.47
2023-11-25T13:04:54.010Z,99713.50
2023-11-25T13:07:34.568Z,99715.16
2023-11-25T13:10:05.481Z,99709.25
2023-11-25T13:12:37.851Z,99707.84
2023-11-25T13:15:10.482Z,99708.69
2023-11-25T13:17:43.610Z,99700.94
2023-11-25T13:20:15.408Z,99709.31
2023-11-25T13:22:45.986Z,99710.81
2023-11-25T13:25:20.682Z,99706.81
2023-11-25T13:27:50.891Z,99700.91
2023-11-25T13:30:21.419Z,99697.59
2023-11-25T13:32:56.366Z,99700.19
2023-11-25T13:35:26.706Z,99705.69
2023-11-25T13:37:57.179Z,99708.03
2023-11-25T13:40:31.296Z,99707.69
2023-11-25T13:43:01.445Z,99696.09
2023-11-25T13:45:32.686Z,99701.88
2023-11-25T13:48:06.654Z,99698.69
2023-11-25T13:50:37.813Z,99706.94
2023-11-25T13:53:09.570Z,99705.41
2023-11-25T13:55:44.688Z,99699.34
2023-11-25T13:58:17.118Z,99703.50
2023-11-25T14:00:49.929Z,99693.16
2023-11-25T14:03:22.789Z,99694.94
2023-11-25T14:05:54.811Z,99707.06
2023-11-25T14:08:29.654Z,99709.81
2023-11-25T14:10:59.941Z,99711.72
2023-11-25T14:13:32.989Z,99713.63
2023-11-25T14:16:03.361Z,99716.66
2023-11-25T14:18:36.034Z,99719.41
2023-11-25T14:21:07.943Z,99714.25
2023-11-25T14:23:38.019Z,99725.81
2023-11-25T14:26:08.268Z,99735.56
2023-11-25T14:28:39.237Z,99742.16
2023-11-25T14:31:10.332Z,99746.53
2023-11-25T14:33:43.344Z,99747.38
2023-11-25T14:36:15.255Z,99761.84
2023-11-25T14:38:47.696Z,99765.03
2023-11-25T14:41:24.132Z,99760.63
2023-11-25T14:43:54.876Z,99765.28
2023-11-25T14:46:25.361Z,99783.13
2023-11-25T14:48:58.049Z,99773.78
2023-11-25T14:51:28.181Z,99772.13
2023-11-25T14:53:58.250Z,99776.78
2023-11-25T14:56:28.369Z,99783.22
2023-11-25T14:58:58.497Z,99781.09
2023-11-25T15:01:28.713Z,99783.72
2023-11-25T15:04:01.605Z,99781.22
2023-11-25T15:06:35.225Z,99778.88
2023-11-25T15:09:05.422Z,99777.09
2023-11-25T15:11:36.352Z,99787.53
2023-11-25T15:14:06.480Z,99786.00
2023-11-25T15:16:36.674Z,99786.22
2023-11-25T15:19:09.430Z,99780.91
2023-11-25T15:21:39.552Z,99772.25
2023-11-25T15:24:11.388Z,99773.06
2023-11-25T15:26:46.023Z,99774.38
2023-11-25T15:29:16.970Z,99787.56
2023-11-25T15:31:48.305Z,99790.28
2023-11-25T15:34:21.841Z,99784.00
2023-11-25T15:36:51.967Z,99780.69
2023-11-25T15:39:27.754Z,99780.94
2023-11-25T15:41:57.994Z,99782.59
2023-11-25T15:44:28.038Z,99802.66
2023-11-25T15:46:58.162Z,99813.94
2023-11-25T15:49:30.873Z,99813.94
2023-11-25T15:52:01.096Z,99820.00
2023-11-25T15:54:32.742Z,99827.72
2023-11-25T15:57:03.215Z,99820.81
2023-11-25T15:59:35.950Z,99823.56
2023-11-25T16:02:06.310Z,99828.66
2023-11-25T16:04:40.078Z,99825.47
2023-11-25T16:07:14.435Z,99822.28
2023-11-25T16:09:45.613Z,99836.16
2023-11-25T16:12:17.821Z,99835.34
2023-11-25T16:14:48.149Z,99836.28
2023-11-25T16:17:20.366Z,99836.28
2023-11-25T16:19:53.418Z,99842.34
2023-11-25T16:22:23.565Z,99842.94
2023-11-25T16:24:53.796Z,99844.59
2023-11-25T16:27:24.050Z,99844.78
2023-11-25T16:29:56.231Z,99853.13
2023-11-25T16:32:26.776Z,99856.56
2023-11-25T16:34:59.653Z,99851.47
2023-11-25T16:37:30.351Z,99858.69
2023-11-25T16:40:01.762Z,99861.31
2023-11-25T16:42:32.497Z,99861.31
2023-11-25T16:45:02.616Z,99860.34
2023-11-25T16:47:34.446Z,99857.97
2023-11-25T16:50:09.197Z,99851.94
2023-11-25T16:52:39.488Z,99855.63
2023-11-25T16:55:10.539Z,99863.69
2023-11-25T16:57:41.112Z,99867.41
2023-11-25T17:00:17.765Z,99870.00
2023-11-25T17:02:48.236Z,99873.56
2023-11-25T17:05:21.174Z,99878.69
2023-11-25T17:07:51.326Z,99875.22
2023-11-25T17:10:22.679Z,99876.19
2023-11-25T17:12:52.769Z,99894.47
2023-11-25T17:15:22.808Z,99898.88
2023-11-25T17:17:52.968Z,99901.59
2023-11-25T17:20:25.914Z,99899.13
2023-11-25T17:22:58.504Z,99904.47
2023-11-25T17:25:31.584Z,99908.03
2023-11-25T17:28:02.206Z,99909.81
2023-11-25T17:30:36.611Z,99920.75
2023-11-25T17:33:07.684Z,99919.19
2023-11-25T17:35:40.663Z,99921.81
2023-11-25T17:38:10.823Z,99926.22
2023-11-25T17:40:41.216Z,99930.59
2023-11-25T17:43:11.349Z,99933.09
2023-11-25T17:45:44.360Z,99945.31
2023-11-25T17:48:14.417Z,99948.66
2023-11-25T17:50:47.824Z,99949.59
2023-11-25T17:53:20.713Z,99949.59
2023-11-25T17:55:50.793Z,99952.56
2023-11-25T17:58:21.011Z,99950.03
2023-11-25T18:00:52.550Z,99963.94
2023-11-25T18:03:24.448Z,99974.03
2023-11-25T18:05:57.601Z,99982.25
2023-11-25T18:08:30.168Z,99988.66
2023-11-25T18:11:00.300Z,99993.28
2023-11-25T18:13:30.486Z,99996.97
2023-11-25T18:16:00.609Z,99994.34
2023-11-25T18:18:31.522Z,99992.81
2023-11-25T18:21:04.358Z,100005.38
2023-11-25T18:23:35.292Z,100010.81
2023-11-25T18:26:05.834Z,100013.56
2023-11-25T18:28:39.284Z,100018.06
2023-11-25T18:31:10.029Z,100015.56
2023-11-25T18:33:40.327Z,100015.56
2023-11-25T18:36:13.223Z,100024.34
2023-11-25T18:38:43.792Z,100033.13
2023-11-25T18:41:13.938Z,100030.63
2023-11-25T18:43:44.104Z,100034.09
2023-11-25T18:46:14.435Z,100041.31
2023-11-25T18:48:44.951Z,100037.16
2023-11-25T18:51:17.880Z,100033.13
2023-11-25T18:53:47.992Z,100039.50
2023-11-25T18:56:18.231Z,100048.53
2023-11-25T18:58:48.347Z,100051.25
2023-11-25T19:01:33.119Z,100054.19
2023-11-25T19:04:04.024Z,100054.53
2023-11-25T19:06:48.256Z,100062.56
2023-11-25T19:09:18.955Z,100061.25
2023-11-25T19:11:50.324Z,100060.75
2023-11-25T19:14:20.994Z,100064.53
2023-11-25T19:16:51.169Z,100056.34
2023-11-25T19:19:21.567Z,100064.50
2023-11-25T19:21:54.232Z,100066.59
2023-11-25T19:24:24.270Z,100077.13
2023-11-25T19:26:54.508Z,100074.84
2023-11-25T19:29:24.564Z,100079.56
2023-11-25T19:31:54.670Z,100079.78
2023-11-25T19:34:24.760Z,100084.41
2023-11-25T19:36:57.576Z,100081.19
2023-11-25T19:39:43.300Z,100081.41
2023-11-25T19:42:13.479Z,100093.81
2023-11-25T19:44:43.565Z,100092.28
2023-11-25T19:47:13.946Z,100095.81
2023-11-25T19:49:44.083Z,100101.31
2023-11-25T19:52:16.851Z,100108.75
2023-11-25T19:54:46.851Z,100108.13
2023-11-25T19:57:17.003Z,100112.72
2023-11-25T19:59:48.671Z,100112.00
2023-11-25T20:02:18.939Z,100118.16
2023-11-25T20:04:49.280Z,100130.34
2023-11-25T20:07:22.068Z,100127.03
2023-11-25T20:09:52.805Z,100132.34
2023-11-25T20:12:23.141Z,100133.38
2023-11-25T20:14:53.629Z,100141.53
2023-11-25T20:17:25.049Z,100138.41
2023-11-25T20:19:57.644Z,100136.81
2023-11-25T20:22:30.866Z,100146.41
2023-11-25T20:25:02.545Z,100138.59
2023-11-25T20:27:32.852Z,100151.63
2023-11-25T20:30:02.994Z,100154.16
2023-11-25T20:32:33.857Z,100154.16
2023-11-25T20:35:04.918Z,100155.81
2023-11-25T20:37:37.695Z,100163.41
2023-11-25T20:40:10.003Z,100161.75
2023-11-25T20:42:42.643Z,100156.53
2023-11-25T20:45:13.253Z,100167.91
2023-11-25T20:47:43.410Z,100165.28
2023-11-25T20:50:14.109Z,100172.28
2023-11-25T20:52:48.121Z,100168.09
2023-11-25T20:55:18.427Z,100175.28
2023-11-25T20:57:48.595Z,100181.31
2023-11-25T21:00:19.359Z,100185.06
2023-11-25T21:02:49.689Z,100185.28
2023-11-25T21:05:20.876Z,100189.66
2023-11-25T21:07:53.916Z,100188.00
2023-11-25T21:10:24.043Z,100201.94
2023-11-25T21:12:54.104Z,100202.69
2023-11-25T21:15:26.026Z,100198.19
2023-11-25T21:17:56.160Z,100205.81
2023-11-25T21:20:26.223Z,100204.97
2023-11-25T21:22:59.003Z,100198.81
2023-11-25T21:25:29.103Z,100207.47
2023-11-25T21:27:59.373Z,100211.94
2023-11-25T21:30:29.518Z,100215.50
2023-11-25T21:33:00.012Z,100211.22
2023-11-25T21:35:30.633Z,100211.22
2023-11-25T21:38:05.192Z,100217.28
2023-11-25T21:40:35.785Z,100221.53
2023-11-25T21:43:05.880Z,100218.09
2023-11-25T21:45:37.205Z,100227.59
2023-11-25T21:48:07.721Z,100231.97
2023-11-25T21:50:37.891Z,100233.72
2023-11-25T21:53:10.691Z,100232.06
2023-11-25T21:55:40.879Z,100236.34
2023-11-25T21:58:11.008Z,100238.22
2023-11-25T22:00:41.099Z,100236.66
2023-11-25T22:03:11.263Z,100233.94
2023-11-25T22:05:41.619Z,100253.13
2023-11-25T22:08:14.307Z,100246.34
2023-11-25T22:10:44.742Z,100257.78
2023-11-25T22:13:14.970Z,100257.78
2023-11-25T22:15:45.250Z,100255.28
2023-11-25T22:18:15.513Z,100256.31
2023-11-25T22:20:45.658Z,100265.91
2023-11-25T22:23:18.549Z,100262.56
2023-11-25T22:26:02.465Z,100265.28
2023-11-25T22:28:32.677Z,100256.63
2023-11-25T22:31:05.936Z,100266.22
2023-11-25T22:33:33.615Z,100260.91
2023-11-25T22:36:04.401Z,100268.72
2023-11-25T22:38:51.450Z,100267.88
2023-11-25T22:41:22.828Z,100279.03
2023-11-25T22:43:55.014Z,100279.78
2023-11-25T22:46:28.111Z,100278.84
2023-11-25T22:48:59.507Z,100281.44
2023-11-25T22:51:29.655Z,100283.00
2023-11-25T22:54:02.307Z,100283.84
2023-11-25T22:56:32.759Z,100292.28
2023-11-25T22:59:03.078Z,100287.81
2023-11-25T23:01:35.533Z,100301.66
2023-11-25T23:04:07.047Z,100286.97
2023-11-25T23:06:40.578Z,100290.53
2023-11-25T23:09:16.890Z,100285.31
2023-11-25T23:11:46.974Z,100291.47
2023-11-25T23:14:17.192Z,100296.66
2023-11-25T23:16:47.321Z,100301.88
2023-11-25T23:19:17.855Z,100301.66
2023-11-25T23:21:48.099Z,100305.22
2023-11-25T23:24:21.334Z,100300.75
2023-11-25T23:26:52.448Z,100312.81
2023-11-25T23:29:25.526Z,100310.22
2023-11-25T23:31:58.958Z,100308.44
2023-11-25T23:34:29.097Z,100300.63
2023-11-25T23:36:59.381Z,100312.81
2023-11-25T23:39:32.181Z,100319.59
2023-11-25T23:42:02.293Z,100312.00
2023-11-25T23:44:34.453Z,100311.34
2023-11-25T23:47:04.548Z,100315.63
2023-11-25T23:49:34.641Z,100316.56
2023-11-25T23:52:04.678Z,100311.34
2023-11-25T23:54:41.999Z,100318.44
2023-11-25T23:57:12.308Z,100319.38
2023-11-25T23:59:42.612Z,100315.00
